| time (UTC) | temp F | wind direction | speed MPH | gust MPH | rain 1hr in | rain 24hr in | rain mn in | humidity % | barometer mb |
| 20260507105018 | 38 | 0.0 | 0.0 | 0.00 | 0.12 | 0.00 | 93 | 1011.1 | |
| 20260507104019 | 37 | 0.0 | 0.0 | 0.00 | 0.12 | 0.00 | 93 | 1011.0 | |
| 20260507103119 | 37 | 0.0 | 0.0 | 0.00 | 0.12 | 0.00 | 92 | 1010.9 | |
| 20260507102019 | 37 | 0.0 | 2.0 | 0.00 | 0.12 | 0.00 | 92 | 1010.8 | |
| 20260507101039 | 37 | 0.0 | 0.0 | 0.00 | 0.12 | 0.00 | 92 | 1010.8 | |
| 20260507100019 | 37 | 0.0 | 1.0 | 0.00 | 0.12 | 0.00 | 92 | 1010.8 | |
| 20260507095018 | 38 | 0.0 | 2.0 | 0.00 | 0.21 | 0.00 | 92 | 1010.8 | |
| 20260507094018 | 38 | 248 | 1.0 | 3.0 | 0.00 | 0.21 | 0.00 | 93 | 1010.9 |
| 20260507093019 | 38 | 248 | 1.0 | 4.0 | 0.00 | 0.21 | 0.00 | 94 | 1010.9 |
| 20260507092019 | 37 | 270 | 1.0 | 3.0 | 0.00 | 0.21 | 0.00 | 94 | 1010.9 |
| 20260507091019 | 36 | 270 | 1.0 | 2.0 | 0.00 | 0.21 | 0.00 | 93 | 1010.8 |
| 20260507090039 | 35 | 0.0 | 2.0 | 0.00 | 0.21 | 0.00 | 92 | 1010.9 | |
| 20260507085018 | 36 | 0.0 | 0.0 | 0.00 | 0.27 | 0.00 | 92 | 1010.8 | |
| 20260507084019 | 36 | 0.0 | 0.0 | 0.00 | 0.27 | 0.00 | 92 | 1010.6 | |
| 20260507083019 | 36 | 0.0 | 0.0 | 0.00 | 0.27 | 0.00 | 91 | 1010.6 | |
| 20260507082018 | 37 | 0.0 | 0.0 | 0.00 | 0.27 | 0.00 | 91 | 1010.8 | |
| 20260507081018 | 37 | 0.0 | 0.0 | 0.00 | 0.27 | 0.00 | 91 | 1010.8 | |
| 20260507080018 | 38 | 0.0 | 0.0 | 0.00 | 0.27 | 0.00 | 91 | 1010.8 | |
| 20260507075018 | 38 | 0.0 | 0.0 | 0.00 | 0.36 | 0.00 | 91 | 1010.5 | |
| 20260507074038 | 38 | 0.0 | 0.0 | 0.00 | 0.36 | 0.00 | 90 | 1010.8 | |
| 20260507073018 | 39 | 0.0 | 2.0 | 0.00 | 0.36 | 0.00 | 90 | 1011.0 | |
| 20260507072018 | 39 | 0.0 | 0.0 | 0.00 | 0.36 | 0.00 | 90 | 1011.0 | |
| 20260507071019 | 39 | 0.0 | 0.0 | 0.00 | 0.36 | 0.00 | 89 | 1011.1 | |
| 20260507070058 | 40 | 0.0 | 1.0 | 0.00 | 0.36 | 0.00 | 89 | 1011.1 | |
| 20260507065018 | 40 | 0.0 | 0.0 | 0.00 | 0.51 | 0.00 | 89 | 1011.0 | |
| 20260507064038 | 41 | 0.0 | 0.0 | 0.00 | 0.51 | 0.00 | 88 | 1011.0 | |
| 20260507063018 | 41 | 0.0 | 0.0 | 0.00 | 0.51 | 0.00 | 88 | 1010.9 | |
| 20260507062018 | 41 | 0.0 | 0.0 | 0.00 | 0.51 | 0.00 | 87 | 1011.0 | |
| 20260507061018 | 42 | 0.0 | 0.0 | 0.00 | 0.51 | 0.00 | 87 | 1011.1 | |
| 20260507060018 | 42 | 0.0 | 0.0 | 0.00 | 0.51 | 0.00 | 86 | 1011.2 | |
| 20260507055018 | 42 | 0.0 | 0.0 | 0.00 | 0.61 | 0.00 | 86 | 1011.3 | |
| 20260507054018 | 42 | 0.0 | 1.0 | 0.00 | 0.61 | 0.00 | 86 | 1011.5 | |
| 20260507053018 | 42 | 0.0 | 2.0 | 0.00 | 0.61 | 0.00 | 87 | 1011.6 | |
| 20260507052020 | 42 | 270 | 1.0 | 2.0 | 0.00 | 0.61 | 0.00 | 87 | 1011.7 |
| 20260507051020 | 42 | 0.0 | 2.0 | 0.00 | 0.61 | 0.00 | 87 | 1011.7 | |
| 20260507050020 | 42 | 0.0 | 2.0 | 0.00 | 0.61 | 0.00 | 87 | 1011.8 | |
| 20260507045020 | 42 | 270 | 1.0 | 3.0 | 0.00 | 0.68 | 0.00 | 87 | 1011.9 |
| 20260507044100 | 42 | 0.0 | 0.0 | 0.00 | 0.68 | 0.00 | 87 | 1011.7 | |
| 20260507043020 | 42 | 270 | 1.0 | 3.0 | 0.00 | 0.68 | 0.00 | 87 | 1011.8 |
| 20260507042020 | 42 | 270 | 1.0 | 4.0 | 0.00 | 0.68 | 0.00 | 87 | 1011.6 |
| 20260507041040 | 42 | 0.0 | 2.0 | 0.00 | 0.68 | 0.00 | 88 | 1011.7 | |
| 20260507040020 | 42 | 270 | 1.0 | 3.0 | 0.00 | 0.75 | 0.68 | 88 | 1011.6 |
| 20260507035100 | 42 | 270 | 1.0 | 3.0 | 0.00 | 0.75 | 0.68 | 88 | 1011.5 |
| 20260507034019 | 42 | 270 | 1.0 | 2.0 | 0.00 | 0.75 | 0.68 | 88 | 1011.5 |
| 20260507033019 | 42 | 270 | 2.0 | 3.0 | 0.00 | 0.75 | 0.68 | 88 | 1011.5 |
| 20260507032019 | 42 | 270 | 3.0 | 4.0 | 0.00 | 0.75 | 0.68 | 87 | 1011.4 |
| 20260507031040 | 42 | 270 | 2.0 | 6.0 | 0.00 | 0.75 | 0.68 | 88 | 1011.4 |
| 20260507030019 | 42 | 293 | 2.0 | 4.0 | 0.00 | 0.75 | 0.68 | 88 | 1011.3 |
| 20260507025019 | 42 | 293 | 1.0 | 3.0 | 0.00 | 0.79 | 0.68 | 88 | 1011.2 |
| 20260507024019 | 42 | 270 | 2.0 | 5.0 | 0.00 | 0.79 | 0.68 | 88 | 1011.2 |
| 20260507023020 | 42 | 270 | 4.0 | 8.0 | 0.00 | 0.79 | 0.68 | 88 | 1011.2 |
| 20260507022019 | 42 | 270 | 4.0 | 7.0 | 0.00 | 0.79 | 0.68 | 88 | 1011.2 |
| 20260507021019 | 43 | 270 | 4.0 | 8.0 | 0.00 | 0.79 | 0.68 | 88 | 1011.3 |
| 20260507020019 | 43 | 293 | 4.0 | 7.0 | 0.00 | 0.85 | 0.68 | 88 | 1011.4 |
| 20260507015019 | 43 | 270 | 5.0 | 8.0 | 0.00 | 0.85 | 0.68 | 88 | 1011.4 |
| 20260507014020 | 43 | 270 | 4.0 | 7.0 | 0.00 | 0.85 | 0.68 | 88 | 1011.3 |
| 20260507013019 | 43 | 293 | 5.0 | 9.0 | 0.00 | 0.85 | 0.68 | 88 | 1011.3 |
| 20260507012019 | 43 | 293 | 5.0 | 11.0 | 0.00 | 0.85 | 0.68 | 88 | 1010.9 |
| 20260507011019 | 43 | 270 | 7.0 | 11.0 | 0.00 | 0.85 | 0.68 | 89 | 1011.0 |
| 20260507010019 | 43 | 293 | 7.0 | 11.0 | 0.00 | 0.85 | 0.68 | 90 | 1011.2 |
| 20260507005019 | 44 | 293 | 6.0 | 11.0 | 0.00 | 0.87 | 0.68 | 90 | 1011.1 |
| 20260507004019 | 44 | 293 | 5.0 | 8.0 | 0.00 | 0.87 | 0.68 | 90 | 1010.7 |
| 20260507003019 | 44 | 293 | 6.0 | 11.0 | 0.00 | 0.87 | 0.68 | 90 | 1010.6 |
| 20260507002019 | 44 | 315 | 5.0 | 9.0 | 0.00 | 0.87 | 0.68 | 90 | 1010.3 |
| 20260507001019 | 44 | 293 | 5.0 | 8.0 | 0.00 | 0.87 | 0.68 | 90 | 1010.2 |
| 20260507000019 | 44 | 293 | 6.0 | 11.0 | 0.00 | 0.87 | 0.68 | 90 | 1010.2 |
| 20260506235019 | 44 | 293 | 7.0 | 13.0 | 0.00 | 0.97 | 0.68 | 90 | 1010.1 |
| 20260506234019 | 44 | 293 | 6.0 | 9.0 | 0.00 | 0.97 | 0.68 | 89 | 1010.0 |
| 20260506233019 | 45 | 293 | 9.0 | 15.0 | 0.00 | 0.97 | 0.68 | 87 | 1010.1 |
| 20260506232019 | 47 | 270 | 8.0 | 14.0 | 0.00 | 0.97 | 0.68 | 86 | 1009.9 |
| 20260506231019 | 47 | 293 | 8.0 | 13.0 | 0.00 | 0.97 | 0.68 | 85 | 1009.9 |
| 20260506230018 | 49 | 293 | 7.0 | 14.0 | 0.00 | 1.10 | 0.68 | 83 | 1009.5 |
| 20260506225019 | 49 | 270 | 7.0 | 13.0 | 0.00 | 1.10 | 0.68 | 80 | 1009.4 |
| 20260506224019 | 48 | 270 | 6.0 | 16.0 | 0.00 | 1.10 | 0.68 | 84 | 1009.2 |
| 20260506223019 | 48 | 0.0 | 4.0 | 0.00 | 1.10 | 0.68 | 86 | 1009.0 | |
| 20260506222020 | 48 | 158 | 3.0 | 5.0 | 0.00 | 1.10 | 0.68 | 85 | 1008.7 |
| 20260506221039 | 49 | 158 | 1.0 | 4.0 | 0.00 | 1.10 | 0.68 | 85 | 1008.9 |
| 20260506220019 | 49 | 158 | 3.0 | 5.0 | 0.00 | 1.10 | 0.68 | 85 | 1008.8 |
| 20260506215019 | 49 | 180 | 2.0 | 3.0 | 0.00 | 1.10 | 0.68 | 85 | 1008.6 |
| 20260506214019 | 49 | 180 | 2.0 | 4.0 | 0.00 | 1.10 | 0.68 | 84 | 1008.5 |
| 20260506213019 | 49 | 180 | 1.0 | 3.0 | 0.00 | 1.10 | 0.68 | 84 | 1008.5 |
| 20260506212019 | 49 | 0.0 | 0.0 | 0.00 | 1.10 | 0.68 | 83 | 1008.6 | |
| 20260506211019 | 49 | 180 | 1.0 | 3.0 | 0.00 | 1.10 | 0.68 | 83 | 1008.7 |
| 20260506210059 | 49 | 0.0 | 0.0 | 0.00 | 1.10 | 0.68 | 83 | 1008.6 | |
| 20260506205019 | 49 | 0.0 | 1.0 | 0.00 | 1.10 | 0.68 | 83 | 1008.7 | |
| 20260506204019 | 49 | 180 | 1.0 | 3.0 | 0.00 | 1.10 | 0.68 | 82 | 1008.7 |
| 20260506203039 | 49 | 180 | 1.0 | 3.0 | 0.00 | 1.10 | 0.68 | 83 | 1008.6 |
| 20260506202059 | 48 | 270 | 1.0 | 3.0 | 0.00 | 1.10 | 0.68 | 83 | 1008.7 |
| 20260506201019 | 48 | 0.0 | 2.0 | 0.00 | 1.10 | 0.68 | 86 | 1008.8 | |
| 20260506200019 | 47 | 0.0 | 0.0 | 0.00 | 1.10 | 0.68 | 87 | 1008.7 | |
| 20260506195018 | 47 | 0.0 | 2.0 | 0.00 | 1.10 | 0.68 | 87 | 1008.7 | |
| 20260506194021 | 47 | 293 | 1.0 | 4.0 | 0.00 | 1.10 | 0.68 | 87 | 1008.7 |
| 20260506193018 | 47 | 338 | 1.0 | 4.0 | 0.00 | 1.10 | 0.68 | 88 | 1008.7 |
| 20260506192038 | 47 | 68 | 1.0 | 3.0 | 0.00 | 1.10 | 0.68 | 89 | 1008.5 |
| 20260506191018 | 47 | 0 | 2.0 | 3.0 | 0.00 | 1.10 | 0.68 | 90 | 1008.5 |
| 20260506190019 | 46 | 0 | 1.0 | 4.0 | 0.00 | 1.10 | 0.68 | 90 | 1008.6 |
| 20260506185018 | 46 | 315 | 1.0 | 4.0 | 0.00 | 1.10 | 0.68 | 90 | 1008.6 |
| 20260506184018 | 46 | 0 | 2.0 | 4.0 | 0.00 | 1.10 | 0.68 | 90 | 1008.6 |
| 20260506183019 | 46 | 0 | 2.0 | 3.0 | 0.00 | 1.10 | 0.68 | 90 | 1008.7 |
| 20260506182018 | 45 | 315 | 3.0 | 5.0 | 0.00 | 1.10 | 0.68 | 90 | 1008.5 |
| 20260506181018 | 45 | 293 | 2.0 | 4.0 | 0.00 | 1.10 | 0.68 | 90 | 1008.6 |
| 20260506180018 | 45 | 0 | 2.0 | 4.0 | 0.00 | 1.10 | 0.68 | 90 | 1008.6 |
| 20260506175038 | 45 | 0 | 1.0 | 3.0 | 0.00 | 1.10 | 0.68 | 90 | 1008.5 |
| 20260506174018 | 45 | 0 | 1.0 | 4.0 | 0.00 | 1.10 | 0.68 | 89 | 1008.6 |
| 20260506173018 | 45 | 315 | 1.0 | 3.0 | 0.00 | 1.10 | 0.68 | 89 | 1008.4 |
| 20260506172018 | 45 | 293 | 1.0 | 4.0 | 0.00 | 1.10 | 0.68 | 89 | 1008.1 |
| 20260506171038 | 45 | 0 | 1.0 | 3.0 | 0.00 | 1.10 | 0.68 | 89 | 1008.1 |
| 20260506170019 | 45 | 23 | 1.0 | 4.0 | 0.00 | 1.10 | 0.68 | 89 | 1007.8 |
| 20260506165018 | 45 | 0 | 2.0 | 4.0 | 0.00 | 1.10 | 0.68 | 89 | 1007.7 |
| 20260506164020 | 45 | 0 | 2.0 | 5.0 | 0.00 | 1.10 | 0.68 | 90 | 1007.8 |
| 20260506163018 | 45 | 23 | 1.0 | 3.0 | 0.00 | 1.10 | 0.68 | 91 | 1008.0 |
| 20260506162018 | 45 | 23 | 2.0 | 4.0 | 0.00 | 1.10 | 0.68 | 91 | 1007.9 |
| 20260506161018 | 45 | 23 | 1.0 | 3.0 | 0.00 | 1.10 | 0.68 | 91 | 1007.7 |
| 20260506160038 | 45 | 23 | 2.0 | 4.0 | 0.00 | 1.10 | 0.68 | 92 | 1007.6 |
| 20260506155018 | 45 | 0 | 2.0 | 3.0 | 0.00 | 1.10 | 0.68 | 93 | 1007.8 |
| 20260506154018 | 45 | 0 | 2.0 | 4.0 | 0.00 | 1.10 | 0.68 | 93 | 1007.8 |
| 20260506153040 | 45 | 68 | 1.0 | 2.0 | 0.01 | 1.10 | 0.68 | 93 | 1007.8 |
| 20260506152040 | 44 | 68 | 2.0 | 4.0 | 0.01 | 1.10 | 0.68 | 93 | 1007.4 |
| 20260506151020 | 44 | 68 | 2.0 | 3.0 | 0.01 | 1.10 | 0.68 | 93 | 1007.5 |
| 20260506150020 | 44 | 68 | 2.0 | 4.0 | 0.01 | 1.10 | 0.68 | 94 | 1007.4 |
| 20260506145020 | 44 | 0 | 2.0 | 4.0 | 0.01 | 1.10 | 0.68 | 94 | 1007.4 |
| 20260506144018 | 44 | 68 | 3.0 | 6.0 | 0.01 | 1.09 | 0.67 | 94 | 1007.2 |
| 20260506143020 | 44 | 68 | 2.0 | 3.0 | 0.01 | 1.09 | 0.67 | 94 | 1007.3 |
| 20260506142020 | 44 | 0 | 1.0 | 3.0 | 0.01 | 1.09 | 0.67 | 94 | 1007.1 |
| 20260506141018 | 44 | 45 | 2.0 | 3.0 | 0.02 | 1.09 | 0.67 | 94 | 1007.1 |
| 20260506140020 | 44 | 45 | 2.0 | 4.0 | 0.02 | 1.09 | 0.67 | 94 | 1006.9 |
| 20260506135020 | 43 | 68 | 1.0 | 3.0 | 0.02 | 1.09 | 0.67 | 94 | 1007.0 |
| 20260506134020 | 43 | 68 | 3.0 | 4.0 | 0.02 | 1.08 | 0.66 | 94 | 1007.0 |
| 20260506133020 | 43 | 68 | 3.0 | 6.0 | 0.02 | 1.08 | 0.66 | 94 | 1007.0 |
| 20260506132100 | 43 | 113 | 2.0 | 4.0 | 0.02 | 1.08 | 0.66 | 94 | 1007.0 |
| 20260506131020 | 43 | 90 | 3.0 | 4.0 | 0.02 | 1.07 | 0.65 | 93 | 1006.8 |
| 20260506130020 | 43 | 113 | 3.0 | 5.0 | 0.02 | 1.07 | 0.65 | 94 | 1006.9 |
| 20260506125019 | 43 | 68 | 2.0 | 4.0 | 0.02 | 1.07 | 0.65 | 94 | 1006.7 |
| 20260506124019 | 43 | 90 | 4.0 | 10.0 | 0.02 | 1.06 | 0.64 | 94 | 1006.5 |
| 20260506123020 | 43 | 90 | 4.0 | 6.0 | 0.02 | 1.06 | 0.64 | 94 | 1006.7 |
| 20260506122020 | 43 | 68 | 4.0 | 8.0 | 0.03 | 1.06 | 0.64 | 94 | 1006.7 |
| 20260506121019 | 43 | 90 | 4.0 | 7.0 | 0.02 | 1.05 | 0.63 | 94 | 1006.8 |
| 20260506120019 | 43 | 68 | 3.0 | 7.0 | 0.02 | 1.05 | 0.63 | 94 | 1007.1 |
| 20260506115019 | 43 | 45 | 3.0 | 6.0 | 0.01 | 1.04 | 0.62 | 94 | 1007.0 |
| 20260506114019 | 43 | 45 | 3.0 | 5.0 | 0.02 | 1.04 | 0.62 | 94 | 1007.0 |
| 20260506113019 | 43 | 45 | 3.0 | 5.0 | 0.03 | 1.04 | 0.62 | 94 | 1006.9 |
| 20260506112019 | 43 | 68 | 4.0 | 6.0 | 0.03 | 1.03 | 0.61 | 94 | 1006.4 |
| 20260506111019 | 43 | 68 | 4.0 | 6.0 | 0.04 | 1.03 | 0.61 | 94 | 1006.3 |
| 20260506110020 | 43 | 68 | 4.0 | 7.0 | 0.05 | 1.03 | 0.61 | 94 | 1006.2 |